sensor_id;sensor_type;location;lat;lon;timestamp;P1;durP1;ratioP1;P2;durP2;ratioP2
33381;SDS011;21342;48.786;9.166;2022-10-03T00:00:13;5.70;;;5.20;;
33381;SDS011;21342;48.786;9.166;2022-10-03T00:05:43;4.70;;;4.30;;
33381;SDS011;21342;48.786;9.166;2022-10-03T00:08:26;5.60;;;5.10;;
33381;SDS011;21342;48.786;9.166;2022-10-03T00:11:08;5.20;;;4.70;;
33381;SDS011;21342;48.786;9.166;2022-10-03T00:13:42;5.60;;;5.10;;
33381;SDS011;21342;48.786;9.166;2022-10-03T00:16:22;6.20;;;5.00;;
33381;SDS011;21342;48.786;9.166;2022-10-03T00:19:01;6.90;;;6.20;;
33381;SDS011;21342;48.786;9.166;2022-10-03T00:21:43;6.37;;;5.77;;
33381;SDS011;21342;48.786;9.166;2022-10-03T00:24:23;8.03;;;7.20;;
33381;SDS011;21342;48.786;9.166;2022-10-03T00:27:01;8.57;;;7.17;;
33381;SDS011;21342;48.786;9.166;2022-10-03T00:29:42;7.80;;;7.00;;
33381;SDS011;21342;48.786;9.166;2022-10-03T00:32:34;8.73;;;7.07;;
33381;SDS011;21342;48.786;9.166;2022-10-03T00:35:17;8.10;;;7.30;;
33381;SDS011;21342;48.786;9.166;2022-10-03T00:37:58;9.17;;;8.00;;
33381;SDS011;21342;48.786;9.166;2022-10-03T00:40:34;9.43;;;8.50;;
33381;SDS011;21342;48.786;9.166;2022-10-03T00:46:29;10.27;;;9.17;;
33381;SDS011;21342;48.786;9.166;2022-10-03T00:52:23;9.10;;;8.23;;
33381;SDS011;21342;48.786;9.166;2022-10-03T00:55:10;9.80;;;8.67;;
33381;SDS011;21342;48.786;9.166;2022-10-03T01:00:48;11.43;;;10.33;;
33381;SDS011;21342;48.786;9.166;2022-10-03T01:03:25;9.30;;;8.40;;
33381;SDS011;21342;48.786;9.166;2022-10-03T01:06:05;10.50;;;9.33;;
33381;SDS011;21342;48.786;9.166;2022-10-03T01:08:50;10.57;;;8.53;;
33381;SDS011;21342;48.786;9.166;2022-10-03T01:11:40;11.10;;;8.60;;
33381;SDS011;21342;48.786;9.166;2022-10-03T01:14:22;10.70;;;9.10;;
33381;SDS011;21342;48.786;9.166;2022-10-03T01:17:07;8.77;;;7.90;;
33381;SDS011;21342;48.786;9.166;2022-10-03T01:19:49;13.43;;;8.67;;
33381;SDS011;21342;48.786;9.166;2022-10-03T01:22:49;8.73;;;7.93;;
33381;SDS011;21342;48.786;9.166;2022-10-03T01:25:45;11.10;;;8.40;;
33381;SDS011;21342;48.786;9.166;2022-10-03T01:28:26;10.43;;;9.50;;
33381;SDS011;21342;48.786;9.166;2022-10-03T01:31:25;10.73;;;9.63;;
33381;SDS011;21342;48.786;9.166;2022-10-03T01:33:59;13.77;;;8.10;;
33381;SDS011;21342;48.786;9.166;2022-10-03T01:36:36;9.50;;;8.57;;
33381;SDS011;21342;48.786;9.166;2022-10-03T01:39:12;11.43;;;8.20;;
33381;SDS011;21342;48.786;9.166;2022-10-03T01:41:46;12.23;;;8.80;;
33381;SDS011;21342;48.786;9.166;2022-10-03T01:44:19;9.67;;;8.67;;
33381;SDS011;21342;48.786;9.166;2022-10-03T01:46:51;11.57;;;10.00;;
33381;SDS011;21342;48.786;9.166;2022-10-03T01:49:25;10.20;;;9.30;;
33381;SDS011;21342;48.786;9.166;2022-10-03T01:51:58;11.57;;;10.07;;
33381;SDS011;21342;48.786;9.166;2022-10-03T01:54:32;10.13;;;9.20;;
33381;SDS011;21342;48.786;9.166;2022-10-03T01:57:10;11.23;;;10.03;;
33381;SDS011;21342;48.786;9.166;2022-10-03T01:59:47;10.77;;;9.63;;
33381;SDS011;21342;48.786;9.166;2022-10-03T02:02:21;12.00;;;10.43;;
33381;SDS011;21342;48.786;9.166;2022-10-03T02:04:58;13.43;;;11.10;;
33381;SDS011;21342;48.786;9.166;2022-10-03T02:07:34;15.83;;;11.00;;
33381;SDS011;21342;48.786;9.166;2022-10-03T02:10:11;13.50;;;11.57;;
33381;SDS011;21342;48.786;9.166;2022-10-03T02:12:50;11.70;;;10.67;;
33381;SDS011;21342;48.786;9.166;2022-10-03T02:15:29;11.50;;;10.30;;
33381;SDS011;21342;48.786;9.166;2022-10-03T02:18:08;12.97;;;11.57;;
33381;SDS011;21342;48.786;9.166;2022-10-03T02:20:42;12.83;;;10.77;;
33381;SDS011;21342;48.786;9.166;2022-10-03T02:23:21;14.60;;;11.63;;
33381;SDS011;21342;48.786;9.166;2022-10-03T02:25:53;13.70;;;12.20;;
33381;SDS011;21342;48.786;9.166;2022-10-03T02:28:34;11.73;;;10.60;;
33381;SDS011;21342;48.786;9.166;2022-10-03T02:34:37;12.93;;;11.67;;
33381;SDS011;21342;48.786;9.166;2022-10-03T02:37:44;12.20;;;10.20;;
33381;SDS011;21342;48.786;9.166;2022-10-03T02:40:38;13.10;;;11.67;;
33381;SDS011;21342;48.786;9.166;2022-10-03T02:55:46;12.80;;;10.73;;
33381;SDS011;21342;48.786;9.166;2022-10-03T02:58:37;12.63;;;11.33;;
33381;SDS011;21342;48.786;9.166;2022-10-03T03:04:34;12.70;;;11.40;;
33381;SDS011;21342;48.786;9.166;2022-10-03T03:07:33;15.90;;;11.67;;
33381;SDS011;21342;48.786;9.166;2022-10-03T03:10:22;23.63;;;12.00;;
33381;SDS011;21342;48.786;9.166;2022-10-03T03:13:12;14.87;;;11.33;;
33381;SDS011;21342;48.786;9.166;2022-10-03T03:16:20;21.70;;;12.53;;
33381;SDS011;21342;48.786;9.166;2022-10-03T03:22:11;16.30;;;11.97;;
33381;SDS011;21342;48.786;9.166;2022-10-03T03:24:59;12.70;;;11.40;;
33381;SDS011;21342;48.786;9.166;2022-10-03T03:27:42;12.20;;;10.93;;
33381;SDS011;21342;48.786;9.166;2022-10-03T03:30:17;16.17;;;13.03;;
33381;SDS011;21342;48.786;9.166;2022-10-03T03:32:50;11.60;;;10.53;;
33381;SDS011;21342;48.786;9.166;2022-10-03T03:35:29;14.10;;;11.10;;
33381;SDS011;21342;48.786;9.166;2022-10-03T03:38:13;13.17;;;11.80;;
33381;SDS011;21342;48.786;9.166;2022-10-03T03:40:54;11.60;;;10.40;;
33381;SDS011;21342;48.786;9.166;2022-10-03T03:43:36;12.57;;;11.23;;
33381;SDS011;21342;48.786;9.166;2022-10-03T03:46:20;15.57;;;12.90;;
33381;SDS011;21342;48.786;9.166;2022-10-03T03:52:00;16.70;;;12.10;;
33381;SDS011;21342;48.786;9.166;2022-10-03T03:58:02;17.43;;;11.40;;
33381;SDS011;21342;48.786;9.166;2022-10-03T04:03:41;15.53;;;11.37;;
33381;SDS011;21342;48.786;9.166;2022-10-03T04:06:23;14.17;;;12.60;;
33381;SDS011;21342;48.786;9.166;2022-10-03T04:09:10;13.70;;;11.53;;
33381;SDS011;21342;48.786;9.166;2022-10-03T04:11:53;14.30;;;12.40;;
33381;SDS011;21342;48.786;9.166;2022-10-03T04:23:50;13.43;;;10.57;;
33381;SDS011;21342;48.786;9.166;2022-10-03T04:26:33;14.00;;;10.57;;
33381;SDS011;21342;48.786;9.166;2022-10-03T04:29:23;10.97;;;8.90;;
33381;SDS011;21342;48.786;9.166;2022-10-03T04:32:12;11.57;;;10.37;;
33381;SDS011;21342;48.786;9.166;2022-10-03T04:34:56;12.87;;;9.40;;
33381;SDS011;21342;48.786;9.166;2022-10-03T04:37:38;17.60;;;10.77;;
33381;SDS011;21342;48.786;9.166;2022-10-03T04:40:16;11.60;;;9.87;;
33381;SDS011;21342;48.786;9.166;2022-10-03T04:42:58;11.67;;;10.50;;
33381;SDS011;21342;48.786;9.166;2022-10-03T04:45:36;14.80;;;9.60;;
33381;SDS011;21342;48.786;9.166;2022-10-03T04:48:14;15.10;;;9.50;;
33381;SDS011;21342;48.786;9.166;2022-10-03T04:50:56;15.37;;;10.07;;
33381;SDS011;21342;48.786;9.166;2022-10-03T04:53:36;11.17;;;9.90;;
33381;SDS011;21342;48.786;9.166;2022-10-03T04:56:18;17.83;;;11.40;;
33381;SDS011;21342;48.786;9.166;2022-10-03T04:58:55;13.90;;;9.47;;
33381;SDS011;21342;48.786;9.166;2022-10-03T05:01:31;11.77;;;9.27;;
33381;SDS011;21342;48.786;9.166;2022-10-03T05:04:07;13.67;;;10.57;;
33381;SDS011;21342;48.786;9.166;2022-10-03T05:06:47;12.83;;;8.83;;
33381;SDS011;21342;48.786;9.166;2022-10-03T05:09:26;12.67;;;9.57;;
33381;SDS011;21342;48.786;9.166;2022-10-03T05:12:04;13.33;;;8.57;;
33381;SDS011;21342;48.786;9.166;2022-10-03T05:14:43;11.70;;;9.87;;
33381;SDS011;21342;48.786;9.166;2022-10-03T05:17:21;12.57;;;9.47;;
33381;SDS011;21342;48.786;9.166;2022-10-03T05:20:00;10.57;;;8.67;;
33381;SDS011;21342;48.786;9.166;2022-10-03T05:22:45;12.00;;;9.00;;
33381;SDS011;21342;48.786;9.166;2022-10-03T05:25:23;10.60;;;8.80;;
33381;SDS011;21342;48.786;9.166;2022-10-03T05:28:04;14.87;;;9.20;;
33381;SDS011;21342;48.786;9.166;2022-10-03T05:30:41;11.50;;;9.07;;
33381;SDS011;21342;48.786;9.166;2022-10-03T05:33:16;16.13;;;10.23;;
33381;SDS011;21342;48.786;9.166;2022-10-03T05:35:54;18.97;;;10.87;;
33381;SDS011;21342;48.786;9.166;2022-10-03T05:41:49;18.27;;;11.40;;
33381;SDS011;21342;48.786;9.166;2022-10-03T05:44:19;15.77;;;12.00;;
33381;SDS011;21342;48.786;9.166;2022-10-03T05:46:57;17.93;;;12.90;;
33381;SDS011;21342;48.786;9.166;2022-10-03T05:49:47;15.90;;;14.13;;
33381;SDS011;21342;48.786;9.166;2022-10-03T05:52:27;20.87;;;14.60;;
33381;SDS011;21342;48.786;9.166;2022-10-03T05:58:24;19.20;;;13.50;;
33381;SDS011;21342;48.786;9.166;2022-10-03T06:01:07;25.00;;;14.80;;
33381;SDS011;21342;48.786;9.166;2022-10-03T06:04:09;25.23;;;15.73;;
33381;SDS011;21342;48.786;9.166;2022-10-03T06:07:11;26.70;;;15.23;;
33381;SDS011;21342;48.786;9.166;2022-10-03T06:12:54;29.40;;;14.40;;
33381;SDS011;21342;48.786;9.166;2022-10-03T06:15:38;25.00;;;16.00;;
33381;SDS011;21342;48.786;9.166;2022-10-03T06:21:39;21.47;;;15.83;;
33381;SDS011;21342;48.786;9.166;2022-10-03T06:28:00;17.63;;;14.30;;
33381;SDS011;21342;48.786;9.166;2022-10-03T06:30:53;27.00;;;19.70;;
33381;SDS011;21342;48.786;9.166;2022-10-03T06:34:02;18.57;;;16.63;;
33381;SDS011;21342;48.786;9.166;2022-10-03T06:40:02;19.53;;;15.50;;
33381;SDS011;21342;48.786;9.166;2022-10-03T06:43:10;20.97;;;14.93;;
33381;SDS011;21342;48.786;9.166;2022-10-03T06:46:05;19.97;;;14.70;;
33381;SDS011;21342;48.786;9.166;2022-10-03T06:52:05;19.07;;;15.53;;
33381;SDS011;21342;48.786;9.166;2022-10-03T07:01:05;19.17;;;14.20;;
33381;SDS011;21342;48.786;9.166;2022-10-03T07:07:13;22.07;;;14.17;;
33381;SDS011;21342;48.786;9.166;2022-10-03T07:10:02;26.67;;;16.50;;
33381;SDS011;21342;48.786;9.166;2022-10-03T07:12:59;21.27;;;15.43;;
33381;SDS011;21342;48.786;9.166;2022-10-03T07:15:49;24.47;;;15.93;;
33381;SDS011;21342;48.786;9.166;2022-10-03T07:25:08;29.40;;;17.87;;
33381;SDS011;21342;48.786;9.166;2022-10-03T07:31:01;25.07;;;16.07;;
33381;SDS011;21342;48.786;9.166;2022-10-03T07:36:41;24.73;;;16.30;;
33381;SDS011;21342;48.786;9.166;2022-10-03T07:39:48;32.23;;;16.93;;
33381;SDS011;21342;48.786;9.166;2022-10-03T07:42:37;24.70;;;16.27;;
33381;SDS011;21342;48.786;9.166;2022-10-03T07:45:22;26.37;;;16.13;;
33381;SDS011;21342;48.786;9.166;2022-10-03T07:51:16;26.07;;;15.93;;
33381;SDS011;21342;48.786;9.166;2022-10-03T07:56:54;21.53;;;16.40;;
33381;SDS011;21342;48.786;9.166;2022-10-03T08:05:44;23.33;;;15.97;;
33381;SDS011;21342;48.786;9.166;2022-10-03T08:08:27;25.23;;;15.33;;
33381;SDS011;21342;48.786;9.166;2022-10-03T08:11:37;18.00;;;13.90;;
33381;SDS011;21342;48.786;9.166;2022-10-03T08:14:41;17.17;;;13.07;;
33381;SDS011;21342;48.786;9.166;2022-10-03T08:17:20;16.07;;;12.37;;
33381;SDS011;21342;48.786;9.166;2022-10-03T08:20:16;20.60;;;14.40;;
33381;SDS011;21342;48.786;9.166;2022-10-03T08:26:22;20.10;;;13.70;;
33381;SDS011;21342;48.786;9.166;2022-10-03T08:35:25;20.17;;;13.90;;
33381;SDS011;21342;48.786;9.166;2022-10-03T08:50:12;17.30;;;12.53;;
33381;SDS011;21342;48.786;9.166;2022-10-03T08:52:58;16.80;;;12.73;;
33381;SDS011;21342;48.786;9.166;2022-10-03T08:55:51;14.53;;;11.80;;
33381;SDS011;21342;48.786;9.166;2022-10-03T09:01:35;13.83;;;11.80;;
33381;SDS011;21342;48.786;9.166;2022-10-03T09:07:31;19.17;;;11.00;;
33381;SDS011;21342;48.786;9.166;2022-10-03T09:10:35;16.20;;;10.97;;
33381;SDS011;21342;48.786;9.166;2022-10-03T09:13:30;13.70;;;9.77;;
33381;SDS011;21342;48.786;9.166;2022-10-03T09:16:27;13.13;;;9.33;;
33381;SDS011;21342;48.786;9.166;2022-10-03T09:19:16;11.00;;;9.30;;
33381;SDS011;21342;48.786;9.166;2022-10-03T09:25:07;10.33;;;9.33;;
33381;SDS011;21342;48.786;9.166;2022-10-03T09:30:49;11.90;;;8.13;;
33381;SDS011;21342;48.786;9.166;2022-10-03T09:43:06;13.50;;;8.50;;
33381;SDS011;21342;48.786;9.166;2022-10-03T09:52:27;11.00;;;6.83;;
33381;SDS011;21342;48.786;9.166;2022-10-03T09:55:10;11.50;;;6.30;;
33381;SDS011;21342;48.786;9.166;2022-10-03T09:58:05;9.83;;;5.50;;
33381;SDS011;21342;48.786;9.166;2022-10-03T10:03:56;7.60;;;5.07;;
33381;SDS011;21342;48.786;9.166;2022-10-03T10:09:55;8.90;;;4.80;;
33381;SDS011;21342;48.786;9.166;2022-10-03T10:12:48;6.47;;;4.87;;
33381;SDS011;21342;48.786;9.166;2022-10-03T10:19:03;9.10;;;4.83;;
33381;SDS011;21342;48.786;9.166;2022-10-03T10:22:06;10.73;;;5.37;;
33381;SDS011;21342;48.786;9.166;2022-10-03T10:25:11;10.07;;;5.23;;
33381;SDS011;21342;48.786;9.166;2022-10-03T10:34:20;13.07;;;5.60;;
33381;SDS011;21342;48.786;9.166;2022-10-03T10:59:18;9.00;;;5.40;;
33381;SDS011;21342;48.786;9.166;2022-10-03T11:05:43;8.67;;;6.10;;
33381;SDS011;21342;48.786;9.166;2022-10-03T11:15:01;8.40;;;6.30;;
33381;SDS011;21342;48.786;9.166;2022-10-03T11:17:58;7.60;;;5.30;;
33381;SDS011;21342;48.786;9.166;2022-10-03T11:30:22;10.00;;;6.80;;
33381;SDS011;21342;48.786;9.166;2022-10-03T11:36:16;8.67;;;4.83;;
33381;SDS011;21342;48.786;9.166;2022-10-03T11:39:11;11.00;;;5.77;;
33381;SDS011;21342;48.786;9.166;2022-10-03T11:41:49;10.07;;;5.00;;
33381;SDS011;21342;48.786;9.166;2022-10-03T11:44:22;6.70;;;4.90;;
33381;SDS011;21342;48.786;9.166;2022-10-03T11:47:04;10.80;;;5.13;;
33381;SDS011;21342;48.786;9.166;2022-10-03T11:49:53;5.03;;;4.53;;
33381;SDS011;21342;48.786;9.166;2022-10-03T11:52:53;7.70;;;3.90;;
33381;SDS011;21342;48.786;9.166;2022-10-03T11:55:34;6.33;;;4.17;;
33381;SDS011;21342;48.786;9.166;2022-10-03T11:58:20;8.90;;;4.60;;
33381;SDS011;21342;48.786;9.166;2022-10-03T12:00:58;5.67;;;4.23;;
33381;SDS011;21342;48.786;9.166;2022-10-03T12:03:41;3.97;;;3.57;;
33381;SDS011;21342;48.786;9.166;2022-10-03T12:06:19;9.80;;;4.20;;
33381;SDS011;21342;48.786;9.166;2022-10-03T12:09:24;6.40;;;4.07;;
33381;SDS011;21342;48.786;9.166;2022-10-03T12:12:01;8.53;;;4.23;;
33381;SDS011;21342;48.786;9.166;2022-10-03T12:14:38;6.00;;;4.10;;
33381;SDS011;21342;48.786;9.166;2022-10-03T12:17:11;7.23;;;4.80;;
33381;SDS011;21342;48.786;9.166;2022-10-03T12:19:44;10.17;;;4.17;;
33381;SDS011;21342;48.786;9.166;2022-10-03T12:22:25;7.73;;;3.90;;
33381;SDS011;21342;48.786;9.166;2022-10-03T12:25:06;7.97;;;4.80;;
33381;SDS011;21342;48.786;9.166;2022-10-03T12:27:46;6.87;;;4.20;;
33381;SDS011;21342;48.786;9.166;2022-10-03T12:30:19;6.67;;;4.50;;
33381;SDS011;21342;48.786;9.166;2022-10-03T12:32:50;13.17;;;5.07;;
33381;SDS011;21342;48.786;9.166;2022-10-03T12:35:37;13.47;;;4.20;;
33381;SDS011;21342;48.786;9.166;2022-10-03T12:38:14;6.60;;;4.43;;
33381;SDS011;21342;48.786;9.166;2022-10-03T12:41:01;8.67;;;4.67;;
33381;SDS011;21342;48.786;9.166;2022-10-03T12:43:45;4.63;;;4.13;;
33381;SDS011;21342;48.786;9.166;2022-10-03T12:46:22;9.30;;;4.93;;
33381;SDS011;21342;48.786;9.166;2022-10-03T12:48:57;9.03;;;4.50;;
33381;SDS011;21342;48.786;9.166;2022-10-03T12:51:40;10.20;;;4.40;;
33381;SDS011;21342;48.786;9.166;2022-10-03T12:54:21;9.90;;;3.73;;
33381;SDS011;21342;48.786;9.166;2022-10-03T12:57:07;6.23;;;4.03;;
33381;SDS011;21342;48.786;9.166;2022-10-03T12:59:59;6.70;;;3.60;;
33381;SDS011;21342;48.786;9.166;2022-10-03T13:02:32;6.60;;;3.63;;
33381;SDS011;21342;48.786;9.166;2022-10-03T13:07:59;6.60;;;3.77;;
33381;SDS011;21342;48.786;9.166;2022-10-03T13:10:34;8.77;;;4.00;;
33381;SDS011;21342;48.786;9.166;2022-10-03T13:13:19;6.10;;;3.60;;
33381;SDS011;21342;48.786;9.166;2022-10-03T13:15:57;7.90;;;4.50;;
33381;SDS011;21342;48.786;9.166;2022-10-03T13:18:55;6.10;;;4.10;;
33381;SDS011;21342;48.786;9.166;2022-10-03T13:21:34;7.47;;;3.53;;
33381;SDS011;21342;48.786;9.166;2022-10-03T13:24:18;8.10;;;3.47;;
33381;SDS011;21342;48.786;9.166;2022-10-03T13:26:58;6.57;;;4.10;;
33381;SDS011;21342;48.786;9.166;2022-10-03T13:29:33;6.70;;;4.07;;
33381;SDS011;21342;48.786;9.166;2022-10-03T13:32:06;6.50;;;4.00;;
33381;SDS011;21342;48.786;9.166;2022-10-03T13:35:00;6.73;;;4.03;;
33381;SDS011;21342;48.786;9.166;2022-10-03T13:37:52;4.90;;;3.97;;
33381;SDS011;21342;48.786;9.166;2022-10-03T13:40:43;5.87;;;3.80;;
33381;SDS011;21342;48.786;9.166;2022-10-03T13:43:15;6.73;;;4.20;;
33381;SDS011;21342;48.786;9.166;2022-10-03T13:45:49;4.63;;;3.47;;
33381;SDS011;21342;48.786;9.166;2022-10-03T13:48:21;7.47;;;4.30;;
33381;SDS011;21342;48.786;9.166;2022-10-03T13:50:52;4.77;;;4.13;;
33381;SDS011;21342;48.786;9.166;2022-10-03T13:53:33;8.63;;;4.57;;
33381;SDS011;21342;48.786;9.166;2022-10-03T13:56:18;8.50;;;4.80;;
33381;SDS011;21342;48.786;9.166;2022-10-03T13:58:57;12.73;;;4.57;;
33381;SDS011;21342;48.786;9.166;2022-10-03T14:01:32;11.30;;;4.10;;
33381;SDS011;21342;48.786;9.166;2022-10-03T14:07:09;7.13;;;4.00;;
33381;SDS011;21342;48.786;9.166;2022-10-03T14:09:57;11.37;;;3.80;;
33381;SDS011;21342;48.786;9.166;2022-10-03T14:12:40;4.63;;;3.70;;
33381;SDS011;21342;48.786;9.166;2022-10-03T14:15:25;6.23;;;3.73;;
33381;SDS011;21342;48.786;9.166;2022-10-03T14:18:01;8.20;;;3.40;;
33381;SDS011;21342;48.786;9.166;2022-10-03T14:20:37;6.50;;;3.60;;
33381;SDS011;21342;48.786;9.166;2022-10-03T14:23:28;5.27;;;3.67;;
33381;SDS011;21342;48.786;9.166;2022-10-03T14:26:02;6.40;;;3.57;;
33381;SDS011;21342;48.786;9.166;2022-10-03T14:28:42;5.30;;;4.20;;
33381;SDS011;21342;48.786;9.166;2022-10-03T14:31:16;7.17;;;3.70;;
33381;SDS011;21342;48.786;9.166;2022-10-03T14:33:50;5.83;;;3.60;;
33381;SDS011;21342;48.786;9.166;2022-10-03T14:36:31;4.73;;;3.73;;
33381;SDS011;21342;48.786;9.166;2022-10-03T14:39:17;5.23;;;3.73;;
33381;SDS011;21342;48.786;9.166;2022-10-03T14:42:06;4.43;;;4.00;;
33381;SDS011;21342;48.786;9.166;2022-10-03T14:44:47;6.97;;;4.27;;
33381;SDS011;21342;48.786;9.166;2022-10-03T14:47:21;7.23;;;4.07;;
33381;SDS011;21342;48.786;9.166;2022-10-03T14:49:52;11.70;;;3.67;;
33381;SDS011;21342;48.786;9.166;2022-10-03T14:52:24;7.83;;;3.80;;
33381;SDS011;21342;48.786;9.166;2022-10-03T14:54:56;4.53;;;3.90;;
33381;SDS011;21342;48.786;9.166;2022-10-03T14:57:32;3.93;;;3.63;;
33381;SDS011;21342;48.786;9.166;2022-10-03T15:00:04;6.10;;;4.47;;
33381;SDS011;21342;48.786;9.166;2022-10-03T15:02:43;7.27;;;4.20;;
33381;SDS011;21342;48.786;9.166;2022-10-03T15:05:12;4.47;;;3.20;;
33381;SDS011;21342;48.786;9.166;2022-10-03T15:07:44;4.30;;;3.47;;
33381;SDS011;21342;48.786;9.166;2022-10-03T15:10:13;5.10;;;3.93;;
33381;SDS011;21342;48.786;9.166;2022-10-03T15:13:03;10.00;;;5.13;;
33381;SDS011;21342;48.786;9.166;2022-10-03T15:15:35;3.90;;;3.40;;
33381;SDS011;21342;48.786;9.166;2022-10-03T15:18:04;8.17;;;3.43;;
33381;SDS011;21342;48.786;9.166;2022-10-03T15:20:39;4.27;;;3.27;;
33381;SDS011;21342;48.786;9.166;2022-10-03T15:23:08;3.60;;;3.30;;
33381;SDS011;21342;48.786;9.166;2022-10-03T15:25:45;7.03;;;4.10;;
33381;SDS011;21342;48.786;9.166;2022-10-03T15:28:18;7.47;;;3.80;;
33381;SDS011;21342;48.786;9.166;2022-10-03T15:30:50;9.43;;;4.47;;
33381;SDS011;21342;48.786;9.166;2022-10-03T15:33:20;6.17;;;3.70;;
33381;SDS011;21342;48.786;9.166;2022-10-03T15:35:55;7.87;;;4.30;;
33381;SDS011;21342;48.786;9.166;2022-10-03T15:38:30;4.70;;;3.40;;
33381;SDS011;21342;48.786;9.166;2022-10-03T15:41:06;6.40;;;4.03;;
33381;SDS011;21342;48.786;9.166;2022-10-03T15:43:40;6.30;;;3.40;;
33381;SDS011;21342;48.786;9.166;2022-10-03T15:46:17;6.30;;;3.93;;
33381;SDS011;21342;48.786;9.166;2022-10-03T15:48:53;7.57;;;4.10;;
33381;SDS011;21342;48.786;9.166;2022-10-03T15:51:21;5.13;;;3.77;;
33381;SDS011;21342;48.786;9.166;2022-10-03T15:53:53;7.07;;;3.53;;
33381;SDS011;21342;48.786;9.166;2022-10-03T15:56:24;5.00;;;3.53;;
33381;SDS011;21342;48.786;9.166;2022-10-03T15:58:57;5.90;;;3.07;;
33381;SDS011;21342;48.786;9.166;2022-10-03T16:01:30;6.00;;;3.83;;
33381;SDS011;21342;48.786;9.166;2022-10-03T16:04:00;5.83;;;3.77;;
33381;SDS011;21342;48.786;9.166;2022-10-03T16:06:29;5.50;;;3.43;;
33381;SDS011;21342;48.786;9.166;2022-10-03T16:09:05;5.20;;;3.17;;
33381;SDS011;21342;48.786;9.166;2022-10-03T16:11:40;4.83;;;3.53;;
33381;SDS011;21342;48.786;9.166;2022-10-03T16:14:15;8.03;;;3.83;;
33381;SDS011;21342;48.786;9.166;2022-10-03T16:16:49;4.60;;;3.90;;
33381;SDS011;21342;48.786;9.166;2022-10-03T16:19:21;5.90;;;4.13;;
33381;SDS011;21342;48.786;9.166;2022-10-03T16:21:53;4.10;;;3.53;;
33381;SDS011;21342;48.786;9.166;2022-10-03T16:24:30;5.03;;;3.80;;
33381;SDS011;21342;48.786;9.166;2022-10-03T16:27:09;6.00;;;3.70;;
33381;SDS011;21342;48.786;9.166;2022-10-03T16:29:42;8.13;;;4.27;;
33381;SDS011;21342;48.786;9.166;2022-10-03T16:32:17;6.90;;;4.80;;
33381;SDS011;21342;48.786;9.166;2022-10-03T16:34:49;6.23;;;4.70;;
33381;SDS011;21342;48.786;9.166;2022-10-03T16:37:17;9.87;;;5.30;;
33381;SDS011;21342;48.786;9.166;2022-10-03T16:39:52;9.00;;;5.47;;
33381;SDS011;21342;48.786;9.166;2022-10-03T16:42:22;8.50;;;6.47;;
33381;SDS011;21342;48.786;9.166;2022-10-03T16:44:53;7.77;;;6.00;;
33381;SDS011;21342;48.786;9.166;2022-10-03T16:47:30;10.63;;;6.20;;
33381;SDS011;21342;48.786;9.166;2022-10-03T16:50:00;9.13;;;6.97;;
33381;SDS011;21342;48.786;9.166;2022-10-03T16:52:47;5.57;;;5.00;;
33381;SDS011;21342;48.786;9.166;2022-10-03T16:55:17;6.00;;;4.00;;
33381;SDS011;21342;48.786;9.166;2022-10-03T16:57:49;4.73;;;4.10;;
33381;SDS011;21342;48.786;9.166;2022-10-03T17:00:21;5.73;;;4.00;;
33381;SDS011;21342;48.786;9.166;2022-10-03T17:02:52;7.43;;;4.40;;
33381;SDS011;21342;48.786;9.166;2022-10-03T17:05:21;5.07;;;3.77;;
33381;SDS011;21342;48.786;9.166;2022-10-03T17:07:49;5.97;;;4.10;;
33381;SDS011;21342;48.786;9.166;2022-10-03T17:13:10;5.17;;;4.67;;
33381;SDS011;21342;48.786;9.166;2022-10-03T17:15:43;6.03;;;5.03;;
33381;SDS011;21342;48.786;9.166;2022-10-03T17:18:18;5.80;;;5.27;;
33381;SDS011;21342;48.786;9.166;2022-10-03T17:20:51;6.73;;;4.57;;
33381;SDS011;21342;48.786;9.166;2022-10-03T17:23:25;9.40;;;5.50;;
33381;SDS011;21342;48.786;9.166;2022-10-03T17:25:58;5.20;;;4.40;;
33381;SDS011;21342;48.786;9.166;2022-10-03T17:28:34;8.30;;;6.13;;
33381;SDS011;21342;48.786;9.166;2022-10-03T17:31:12;8.53;;;5.13;;
33381;SDS011;21342;48.786;9.166;2022-10-03T17:33:50;8.50;;;6.50;;
33381;SDS011;21342;48.786;9.166;2022-10-03T17:36:37;10.73;;;6.00;;
33381;SDS011;21342;48.786;9.166;2022-10-03T17:39:45;12.47;;;7.03;;
33381;SDS011;21342;48.786;9.166;2022-10-03T17:42:27;7.63;;;5.70;;
33381;SDS011;21342;48.786;9.166;2022-10-03T17:45:23;9.63;;;7.20;;
33381;SDS011;21342;48.786;9.166;2022-10-03T17:47:57;7.43;;;6.20;;
33381;SDS011;21342;48.786;9.166;2022-10-03T17:50:36;9.43;;;6.20;;
33381;SDS011;21342;48.786;9.166;2022-10-03T17:53:12;7.90;;;5.80;;
33381;SDS011;21342;48.786;9.166;2022-10-03T17:55:46;13.23;;;5.90;;
33381;SDS011;21342;48.786;9.166;2022-10-03T17:58:20;7.83;;;5.90;;
33381;SDS011;21342;48.786;9.166;2022-10-03T18:00:56;8.40;;;5.80;;
33381;SDS011;21342;48.786;9.166;2022-10-03T18:03:40;9.70;;;7.33;;
33381;SDS011;21342;48.786;9.166;2022-10-03T18:12:08;14.03;;;8.83;;
33381;SDS011;21342;48.786;9.166;2022-10-03T18:14:50;11.37;;;9.47;;
33381;SDS011;21342;48.786;9.166;2022-10-03T18:17:38;18.77;;;13.03;;
33381;SDS011;21342;48.786;9.166;2022-10-03T18:20:22;15.20;;;10.17;;
33381;SDS011;21342;48.786;9.166;2022-10-03T18:23:07;13.87;;;11.70;;
33381;SDS011;21342;48.786;9.166;2022-10-03T18:25:48;19.43;;;13.30;;
33381;SDS011;21342;48.786;9.166;2022-10-03T18:28:27;20.10;;;15.90;;
33381;SDS011;21342;48.786;9.166;2022-10-03T18:30:59;18.43;;;14.00;;
33381;SDS011;21342;48.786;9.166;2022-10-03T18:33:31;14.00;;;10.60;;
33381;SDS011;21342;48.786;9.166;2022-10-03T18:36:08;11.83;;;10.00;;
33381;SDS011;21342;48.786;9.166;2022-10-03T18:38:41;16.17;;;9.70;;
33381;SDS011;21342;48.786;9.166;2022-10-03T18:41:11;20.43;;;9.27;;
33381;SDS011;21342;48.786;9.166;2022-10-03T18:43:42;16.77;;;9.73;;
33381;SDS011;21342;48.786;9.166;2022-10-03T18:46:14;13.00;;;10.20;;
33381;SDS011;21342;48.786;9.166;2022-10-03T18:48:51;23.43;;;11.03;;
33381;SDS011;21342;48.786;9.166;2022-10-03T18:51:29;19.27;;;12.40;;
33381;SDS011;21342;48.786;9.166;2022-10-03T18:54:03;24.87;;;13.60;;
33381;SDS011;21342;48.786;9.166;2022-10-03T18:56:39;16.70;;;10.77;;
33381;SDS011;21342;48.786;9.166;2022-10-03T18:59:10;20.13;;;12.00;;
33381;SDS011;21342;48.786;9.166;2022-10-03T19:01:43;18.90;;;11.93;;
33381;SDS011;21342;48.786;9.166;2022-10-03T19:04:18;14.70;;;11.17;;
33381;SDS011;21342;48.786;9.166;2022-10-03T19:06:58;31.57;;;19.03;;
33381;SDS011;21342;48.786;9.166;2022-10-03T19:09:32;30.67;;;18.33;;
33381;SDS011;21342;48.786;9.166;2022-10-03T19:12:05;28.17;;;17.50;;
33381;SDS011;21342;48.786;9.166;2022-10-03T19:14:43;25.03;;;16.33;;
33381;SDS011;21342;48.786;9.166;2022-10-03T19:17:24;19.10;;;13.03;;
33381;SDS011;21342;48.786;9.166;2022-10-03T19:19:58;25.00;;;14.93;;
33381;SDS011;21342;48.786;9.166;2022-10-03T19:22:37;26.80;;;13.60;;
33381;SDS011;21342;48.786;9.166;2022-10-03T19:25:12;26.73;;;15.90;;
33381;SDS011;21342;48.786;9.166;2022-10-03T19:27:47;20.80;;;16.30;;
33381;SDS011;21342;48.786;9.166;2022-10-03T19:30:17;19.20;;;15.47;;
33381;SDS011;21342;48.786;9.166;2022-10-03T19:32:49;16.93;;;12.83;;
33381;SDS011;21342;48.786;9.166;2022-10-03T19:35:21;18.10;;;11.67;;
33381;SDS011;21342;48.786;9.166;2022-10-03T19:37:50;17.27;;;10.57;;
33381;SDS011;21342;48.786;9.166;2022-10-03T19:43:30;15.77;;;12.17;;
33381;SDS011;21342;48.786;9.166;2022-10-03T19:46:17;17.40;;;10.70;;
33381;SDS011;21342;48.786;9.166;2022-10-03T19:49:01;12.87;;;10.70;;
33381;SDS011;21342;48.786;9.166;2022-10-03T19:51:42;27.37;;;14.10;;
33381;SDS011;21342;48.786;9.166;2022-10-03T19:54:11;20.53;;;14.10;;